Time;durP1;ratioP1;P1;durP2;ratioP2;P2;SDS_P1;SDS_P2;PMS_P1;PMS_P2;Temp;Humidity;BMP_temperature;BMP_pressure;BME280_temperature;BME280_humidity;BME280_pressure;Samples;Min_cycle;Max_cycle;Signal;HPM_P1;HPM_P2
2023/07/26 00:00:04;;;;;;;13.85;9.27;;;;;;;29.49;53.84;98210.34;5013251;28;20412;-75
2023/07/26 00:02:29;;;;;;;15.40;8.85;;;;;;;29.32;54.97;98210.00;5013040;28;20029;-75
2023/07/26 00:04:55;;;;;;;17.17;10.05;;;;;;;29.58;53.83;98204.50;5012346;28;20022;-75
2023/07/26 00:07:20;;;;;;;14.15;9.05;;;;;;;29.56;53.96;98184.03;5013655;28;20029;-75
2023/07/26 00:09:45;;;;;;;15.10;9.32;;;;;;;29.53;53.70;98191.59;5011374;28;20029;-75
2023/07/26 00:12:11;;;;;;;13.80;9.07;;;;;;;29.31;54.40;98186.19;5013220;28;20037;-75
2023/07/26 00:14:36;;;;;;;20.42;10.18;;;;;;;29.14;54.72;98174.38;5013540;28;20052;-75
2023/07/26 00:17:02;;;;;;;14.48;9.23;;;;;;;28.97;55.23;98182.69;5009965;28;20493;-75
2023/07/26 00:19:28;;;;;;;13.20;9.70;;;;;;;28.81;55.67;98195.41;5013470;28;20030;-75
2023/07/26 00:21:54;;;;;;;13.65;9.73;;;;;;;29.07;54.97;98189.97;5012819;28;20485;-75
2023/07/26 00:24:19;;;;;;;16.50;9.05;;;;;;;29.20;54.30;98178.16;5007076;28;20037;-75
2023/07/26 00:26:44;;;;;;;18.35;9.32;;;;;;;29.10;54.65;98183.19;5012430;28;20033;-75
2023/07/26 00:29:10;;;;;;;18.17;8.82;;;;;;;29.03;54.59;98171.28;5013321;28;20026;-75
2023/07/26 00:31:35;;;;;;;12.07;8.40;;;;;;;29.18;54.38;98171.31;5012732;28;20493;-75
2023/07/26 00:34:01;;;;;;;17.35;9.82;;;;;;;29.03;54.87;98166.34;5012348;28;20048;-75
2023/07/26 00:36:26;;;;;;;14.45;9.73;;;;;;;29.07;54.44;98155.41;5013185;28;20091;-75
2023/07/26 00:38:52;;;;;;;17.90;9.30;;;;;;;29.07;54.38;98161.19;5011757;28;20026;-75
2023/07/26 00:41:17;;;;;;;16.67;9.50;;;;;;;29.31;53.72;98165.25;5011126;28;20030;-75
2023/07/26 00:43:43;;;;;;;13.40;9.30;;;;;;;29.35;53.72;98154.34;5012392;28;20026;-75
2023/07/26 00:46:08;;;;;;;16.33;9.65;;;;;;;29.39;53.28;98169.31;5012906;28;20508;-75
2023/07/26 00:48:35;;;;;;;23.70;10.70;;;;;;;29.03;54.15;98183.59;5012065;28;20033;-75
2023/07/26 00:51:01;;;;;;;19.65;10.60;;;;;;;27.69;58.98;98184.56;5012281;28;20489;-75
2023/07/26 00:53:28;;;;;;;21.48;11.48;;;;;;;27.44;60.40;98177.91;5010686;28;20099;-75
2023/07/26 00:55:54;;;;;;;17.65;10.85;;;;;;;27.86;58.83;98171.41;5012869;28;20026;-75
2023/07/26 00:58:21;;;;;;;15.95;9.52;;;;;;;28.19;57.31;98174.78;5012309;28;20033;-75
2023/07/26 01:00:47;;;;;;;16.88;11.07;;;;;;;28.07;57.51;98173.72;5012693;28;20509;-75
2023/07/26 01:03:14;;;;;;;20.35;9.98;;;;;;;28.36;56.74;98181.72;5010750;28;20053;-75
2023/07/26 01:05:54;;;;;;;32.78;10.60;;;;;;;28.05;57.28;98188.56;5012531;28;20100;-75
2023/07/26 01:08:28;;;;;;;;;;;;;;;26.59;61.20;98191.50;5011556;28;20025;-75
2023/07/26 01:10:58;;;;;;;16.25;10.93;;;;;;;26.04;63.14;98195.84;5011528;28;20013;-75
2023/07/26 01:13:36;;;;;;;18.13;10.60;;;;;;;26.02;63.54;98191.84;5010468;28;20485;-75
2023/07/26 01:16:02;;;;;;;15.70;10.68;;;;;;;26.12;63.11;98187.75;5012440;28;20068;-75
2023/07/26 01:18:28;;;;;;;17.42;10.98;;;;;;;25.97;63.55;98187.53;5012332;28;20053;-75
2023/07/26 01:20:53;;;;;;;18.02;10.88;;;;;;;25.61;65.14;98184.06;5012143;28;20066;-75
2023/07/26 01:23:19;;;;;;;14.40;10.50;;;;;;;25.63;65.90;98192.16;5010340;28;20025;-75
2023/07/26 01:25:44;;;;;;;18.42;11.32;;;;;;;25.46;66.66;98189.50;5012255;28;20084;-75
2023/07/26 01:28:10;;;;;;;18.60;11.63;;;;;;;25.51;67.04;98193.88;5011150;28;20414;-75
2023/07/26 01:30:35;;;;;;;17.67;11.35;;;;;;;25.02;68.75;98189.53;5012190;28;20018;-75
2023/07/26 01:33:08;;;;;;;16.80;11.07;;;;;;;25.29;68.34;98188.94;5010670;28;20056;-75
2023/07/26 01:35:36;;;;;;;16.98;12.00;;;;;;;25.35;67.80;98192.81;5011937;28;20038;-74
2023/07/26 01:38:02;;;;;;;19.33;10.93;;;;;;;25.68;66.74;98185.84;5011741;28;20021;-75
2023/07/26 01:40:28;;;;;;;15.05;10.50;;;;;;;25.77;66.39;98185.88;5011999;28;20068;-75
2023/07/26 01:42:55;;;;;;;20.23;11.40;;;;;;;26.03;65.26;98181.97;5011167;28;20050;-75
2023/07/26 01:45:21;;;;;;;16.73;11.40;;;;;;;26.20;64.87;98185.41;5008881;28;20030;-75
2023/07/26 01:47:46;;;;;;;21.05;11.27;;;;;;;26.33;64.16;98185.28;5012043;28;20034;-75
2023/07/26 01:50:12;;;;;;;21.73;11.30;;;;;;;26.57;63.46;98182.59;5011698;28;20437;-75
2023/07/26 01:52:37;;;;;;;16.83;10.38;;;;;;;26.73;62.70;98175.75;5010974;28;20025;-75
2023/07/26 01:55:03;;;;;;;25.38;12.32;;;;;;;26.46;63.96;98182.25;5011066;28;20030;-75
2023/07/26 01:57:28;;;;;;;21.40;11.52;;;;;;;26.16;64.70;98194.13;5010444;28;20030;-75
2023/07/26 01:59:54;;;;;;;16.25;11.00;;;;;;;25.56;67.07;98184.66;5011634;28;20065;-75
2023/07/26 02:02:20;;;;;;;16.10;11.50;;;;;;;25.77;66.47;98185.06;5008716;28;20029;-75
2023/07/26 02:04:46;;;;;;;14.52;11.68;;;;;;;26.21;65.00;98179.22;5010826;28;20108;-75
2023/07/26 02:07:12;;;;;;;16.65;13.00;;;;;;;25.77;66.78;98185.06;5011359;28;20037;-75
2023/07/26 02:09:38;;;;;;;17.10;11.95;;;;;;;25.31;68.17;98179.91;5011271;28;20420;-75
2023/07/26 02:12:04;;;;;;;26.55;13.50;;;;;;;25.34;68.28;98196.13;5011022;28;20030;-75
2023/07/26 02:14:30;;;;;;;23.25;12.70;;;;;;;25.15;69.01;98193.13;5009822;28;20030;-75
2023/07/26 02:16:55;;;;;;;19.35;12.45;;;;;;;24.95;68.87;98187.75;5011571;28;20030;-75
2023/07/26 02:19:21;;;;;;;23.70;12.98;;;;;;;24.73;69.60;98194.22;5008997;28;20100;-75
2023/07/26 02:21:46;;;;;;;23.85;13.57;;;;;;;24.61;69.71;98186.47;5010670;28;20493;-75
2023/07/26 02:24:12;;;;;;;20.33;12.75;;;;;;;24.72;69.87;98192.63;5009009;28;20087;-75
2023/07/26 02:26:37;;;;;;;21.40;13.20;;;;;;;24.52;70.33;98195.78;5011451;28;20227;-75
2023/07/26 02:29:03;;;;;;;18.95;12.90;;;;;;;24.35;71.44;98201.66;5011298;28;20513;-75
2023/07/26 02:31:28;;;;;;;20.13;12.30;;;;;;;24.07;72.74;98194.84;5010710;28;20029;-75
2023/07/26 02:33:54;;;;;;;25.08;12.63;;;;;;;24.44;71.65;98195.25;5004827;28;20497;-75
2023/07/26 02:36:19;;;;;;;19.25;12.75;;;;;;;24.77;70.54;98200.66;4996093;28;20466;-75
2023/07/26 02:38:45;;;;;;;41.72;14.98;;;;;;;25.12;69.17;98190.44;5009523;28;20061;-75
2023/07/26 02:41:10;;;;;;;23.17;13.40;;;;;;;24.86;69.20;98181.97;5009929;28;20029;-75
2023/07/26 02:43:36;;;;;;;24.42;13.75;;;;;;;25.19;68.22;98185.22;5009642;28;20401;-75
2023/07/26 02:46:01;;;;;;;30.17;13.60;;;;;;;25.58;66.79;98202.19;5009835;28;20113;-75
2023/07/26 02:48:27;;;;;;;34.83;17.92;;;;;;;25.83;65.47;98193.84;5011197;28;20030;-75
2023/07/26 02:50:52;;;;;;;33.53;17.80;;;;;;;25.81;65.39;98200.03;5011110;28;20022;-75
2023/07/26 02:53:18;;;;;;;22.63;12.73;;;;;;;25.95;64.74;98189.28;5008216;28;20037;-75
2023/07/26 02:55:43;;;;;;;28.85;13.48;;;;;;;26.10;64.13;98190.28;5011036;28;20049;-75
2023/07/26 02:58:09;;;;;;;33.90;12.93;;;;;;;26.29;64.03;98193.22;5011043;28;20029;-75
2023/07/26 03:00:35;;;;;;;31.48;13.38;;;;;;;26.25;63.90;98183.97;5011025;28;20026;-75
2023/07/26 03:03:01;;;;;;;25.15;12.57;;;;;;;26.48;63.30;98174.78;5010401;28;20497;-75
2023/07/26 03:05:27;;;;;;;28.17;12.68;;;;;;;26.57;62.78;98167.47;5010322;28;20022;-75
2023/07/26 03:07:53;;;;;;;29.88;13.32;;;;;;;26.78;61.93;98177.19;5010773;28;20496;-75
2023/07/26 03:10:18;;;;;;;23.65;12.23;;;;;;;26.75;61.92;98169.56;5009879;28;20053;-75
2023/07/26 03:12:44;;;;;;;29.92;13.10;;;;;;;26.65;61.92;98157.25;5010163;28;20033;-75
2023/07/26 03:15:10;;;;;;;33.63;12.60;;;;;;;26.84;61.77;98163.00;5009109;28;20033;-75
2023/07/26 03:17:35;;;;;;;29.63;13.77;;;;;;;26.64;62.17;98178.63;5010897;28;20022;-75
2023/07/26 03:20:01;;;;;;;16.73;12.05;;;;;;;25.85;65.05;98177.00;5010854;28;20048;-75
2023/07/26 03:22:26;;;;;;;18.58;11.50;;;;;;;26.24;63.84;98165.19;5009632;28;20034;-75
2023/07/26 03:24:52;;;;;;;16.55;12.15;;;;;;;26.10;64.01;98158.78;5008754;28;20057;-75
2023/07/26 03:27:17;;;;;;;21.52;13.55;;;;;;;26.19;63.92;98161.69;5013664;28;20025;-75
2023/07/26 03:29:43;;;;;;;25.13;12.68;;;;;;;26.45;62.99;98154.88;5014206;28;20026;-75
2023/07/26 03:32:08;;;;;;;21.38;12.25;;;;;;;26.46;62.82;98154.41;5009245;28;20033;-75
2023/07/26 03:34:34;;;;;;;26.20;12.93;;;;;;;26.18;63.75;98144.94;4994465;28;20050;-75
2023/07/26 03:37:01;;;;;;;49.60;14.55;;;;;;;26.31;63.55;98148.50;4995169;28;20276;-75
2023/07/26 03:39:26;;;;;;;50.92;14.63;;;;;;;26.41;63.42;98157.88;5014368;28;20413;-75
2023/07/26 03:41:52;;;;;;;43.20;14.38;;;;;;;26.45;62.81;98158.56;5011096;28;20037;-75
2023/07/26 03:44:17;;;;;;;34.20;14.02;;;;;;;26.36;62.89;98141.34;5014220;28;20088;-75
2023/07/26 03:46:43;;;;;;;29.25;13.63;;;;;;;26.02;63.82;98137.44;5014008;28;20413;-75
2023/07/26 03:49:08;;;;;;;24.45;13.60;;;;;;;26.08;64.01;98156.38;5014171;28;20106;-75
2023/07/26 03:51:34;;;;;;;28.60;12.40;;;;;;;26.32;63.48;98157.91;5014115;28;20026;-75
2023/07/26 03:53:59;;;;;;;25.65;13.57;;;;;;;26.07;64.74;98156.88;5013035;28;20473;-75
2023/07/26 03:56:25;;;;;;;34.78;13.82;;;;;;;26.26;64.00;98140.53;5013896;28;20022;-75
2023/07/26 03:58:50;;;;;;;27.58;13.65;;;;;;;26.07;64.29;98120.41;5012853;28;20042;-75
2023/07/26 04:01:16;;;;;;;50.38;15.18;;;;;;;26.11;64.74;98131.72;5007409;28;20025;-75
2023/07/26 04:03:41;;;;;;;29.00;14.88;;;;;;;25.61;66.01;98121.09;5006209;28;20030;-75
2023/07/26 04:06:11;;;;;;;26.23;11.77;;;;;;;25.57;66.82;98134.72;5013169;28;20029;-75
2023/07/26 04:08:37;;;;;;;26.50;13.45;;;;;;;25.44;66.90;98137.69;5013830;28;20038;-75
2023/07/26 04:11:03;;;;;;;28.05;14.10;;;;;;;25.60;66.76;98121.56;5001665;28;20084;-75
2023/07/26 04:13:28;;;;;;;29.42;13.73;;;;;;;25.78;65.84;98117.94;5009001;28;20034;-75
2023/07/26 04:15:54;;;;;;;23.27;12.20;;;;;;;25.67;66.23;98114.72;5003546;28;20078;-75
2023/07/26 04:18:19;;;;;;;19.15;12.63;;;;;;;25.48;67.21;98118.28;5010414;28;20125;-75
2023/07/26 04:20:45;;;;;;;24.45;15.52;;;;;;;25.58;67.15;98106.91;5007621;28;20072;-74
2023/07/26 04:23:10;;;;;;;43.65;12.68;;;;;;;25.88;66.27;98101.59;5011347;28;20029;-72
2023/07/26 04:25:35;;;;;;;32.05;14.15;;;;;;;26.06;66.00;98112.28;5006981;28;21190;-73
2023/07/26 04:28:01;;;;;;;24.85;14.20;;;;;;;26.14;65.55;98113.56;5004885;28;20033;-73
2023/07/26 04:30:26;;;;;;;25.45;14.55;;;;;;;26.03;66.06;98124.69;5006291;28;20100;-74
2023/07/26 04:32:52;;;;;;;30.20;16.00;;;;;;;25.23;69.22;98122.94;5005697;28;20017;-75
2023/07/26 04:35:18;;;;;;;33.45;15.23;;;;;;;25.51;67.99;98114.50;5004408;28;20046;-76
2023/07/26 04:37:43;;;;;;;27.35;14.15;;;;;;;25.83;67.74;98114.47;5000330;28;20030;-74
2023/07/26 04:40:09;;;;;;;21.88;14.20;;;;;;;25.82;67.43;98118.59;5003572;28;20528;-71
2023/07/26 04:42:35;;;;;;;33.10;15.75;;;;;;;26.15;66.72;98138.09;5002005;28;20520;-73
2023/07/26 04:45:00;;;;;;;24.48;13.60;;;;;;;26.23;66.23;98114.91;4995860;28;20029;-73
2023/07/26 04:47:26;;;;;;;21.13;12.63;;;;;;;25.81;68.01;98108.41;5010140;28;20018;-74
2023/07/26 04:49:51;;;;;;;21.60;12.02;;;;;;;26.08;66.44;98130.59;4998827;28;20163;-73
2023/07/26 04:52:16;;;;;;;25.33;15.15;;;;;;;26.21;66.05;98139.09;4999540;28;20026;-73
2023/07/26 04:54:42;;;;;;;33.88;16.95;;;;;;;26.11;66.86;98165.28;4996400;28;20022;-73
2023/07/26 04:57:08;;;;;;;25.23;15.13;;;;;;;25.97;67.32;98184.66;5005896;28;20032;-73
2023/07/26 04:59:33;;;;;;;23.98;13.57;;;;;;;26.27;64.93;98193.72;5011376;28;20524;-73
2023/07/26 05:01:59;;;;;;;20.88;12.70;;;;;;;26.05;65.29;98188.03;5011510;28;20044;-73
2023/07/26 05:04:24;;;;;;;27.27;14.05;;;;;;;25.86;66.74;98190.84;5001506;28;20052;-71
2023/07/26 05:06:50;;;;;;;33.25;14.70;;;;;;;25.72;67.16;98220.84;5006100;28;20037;-71
2023/07/26 05:09:15;;;;;;;24.10;14.80;;;;;;;25.49;68.29;98205.00;4993081;28;20128;-73
2023/07/26 05:11:41;;;;;;;35.85;13.82;;;;;;;25.50;68.46;98200.88;4995286;28;20026;-74
2023/07/26 05:14:06;;;;;;;33.25;13.18;;;;;;;25.69;66.90;98181.72;5009233;28;20101;-73
2023/07/26 05:16:31;;;;;;;32.28;12.80;;;;;;;26.16;64.89;98191.25;5012491;28;20489;-74
2023/07/26 05:18:58;;;;;;;25.10;12.45;;;;;;;26.30;64.21;98178.41;5012740;28;20073;-73
2023/07/26 05:21:24;;;;;;;23.90;12.65;;;;;;;26.22;64.51;98188.59;5012159;28;20041;-74
2023/07/26 05:23:50;;;;;;;29.52;11.95;;;;;;;26.55;63.60;98198.69;5009975;28;20030;-73
2023/07/26 05:26:15;;;;;;;21.10;12.38;;;;;;;26.90;61.61;98182.00;5012109;28;20022;-74
2023/07/26 05:28:40;;;;;;;27.92;12.23;;;;;;;27.45;59.69;98196.72;5011200;28;20029;-74
2023/07/26 05:31:06;;;;;;;27.25;12.48;;;;;;;27.69;59.07;98198.94;5009667;28;20021;-74
2023/07/26 05:33:31;;;;;;;23.65;13.52;;;;;;;27.82;58.42;98202.38;4999592;28;20042;-74
2023/07/26 05:35:57;;;;;;;27.42;12.07;;;;;;;28.04;57.12;98207.06;5007491;28;20061;-71
2023/07/26 05:38:22;;;;;;;35.92;12.60;;;;;;;28.23;56.52;98198.38;5011126;28;20018;-71
2023/07/26 05:40:48;;;;;;;35.85;13.32;;;;;;;28.65;56.44;98188.03;5012322;28;20083;-73
2023/07/26 05:43:13;;;;;;;23.65;11.93;;;;;;;28.64;55.42;98187.25;5010223;28;20080;-73
2023/07/26 05:45:42;;;;;;;34.38;14.38;;;;;;;28.58;55.45;98186.31;5001034;28;20097;-74
2023/07/26 05:48:07;;;;;;;24.25;12.40;;;;;;;28.90;56.07;98183.88;5010938;28;20017;-73
2023/07/26 05:50:33;;;;;;;28.10;13.88;;;;;;;29.05;55.13;98185.97;5011850;28;20044;-75
2023/07/26 05:52:58;;;;;;;30.33;14.60;;;;;;;29.06;55.00;98178.94;5001557;28;20030;-78
2023/07/26 05:55:24;;;;;;;30.40;14.88;;;;;;;29.35;54.72;98180.25;4999661;28;20057;-74
2023/07/26 05:57:49;;;;;;;20.35;12.50;;;;;;;29.42;52.76;98188.47;4999576;28;20480;-74
2023/07/26 06:00:17;;;;;;;21.52;11.80;;;;;;;29.46;53.91;98174.72;4995500;28;20409;-74
2023/07/26 06:02:42;;;;;;;28.42;12.13;;;;;;;29.65;52.22;98175.31;4998089;28;20061;-74
2023/07/26 06:05:08;;;;;;;23.67;11.27;;;;;;;29.71;51.95;98169.63;5010283;28;20293;-74
2023/07/26 06:07:34;;;;;;;26.48;13.38;;;;;;;29.58;51.64;98160.50;5008169;28;20474;-74
2023/07/26 06:09:59;;;;;;;18.52;9.95;;;;;;;29.65;52.34;98162.97;5006987;28;20026;-74
2023/07/26 06:12:25;;;;;;;21.27;9.50;;;;;;;29.76;51.27;98160.28;5002080;28;20480;-73
2023/07/26 06:14:51;;;;;;;22.73;11.07;;;;;;;29.55;52.04;98165.19;5001367;28;20492;-72
2023/07/26 06:17:16;;;;;;;18.83;10.00;;;;;;;29.60;50.32;98160.81;5004975;28;20030;-71
2023/07/26 06:19:42;;;;;;;20.30;9.80;;;;;;;29.72;51.19;98151.06;4993816;28;20109;-72
2023/07/26 06:22:07;;;;;;;15.75;8.93;;;;;;;29.67;50.52;98154.63;5004545;28;20025;-72
2023/07/26 06:24:33;;;;;;;19.15;9.75;;;;;;;29.70;50.73;98151.53;5004730;28;20026;-75
2023/07/26 06:26:58;;;;;;;19.30;10.50;;;;;;;29.65;51.72;98151.44;4999062;28;20144;-74
2023/07/26 06:29:24;;;;;;;18.98;10.20;;;;;;;29.59;50.86;98145.59;5002439;28;20500;-74
2023/07/26 06:31:49;;;;;;;23.83;10.75;;;;;;;29.81;50.21;98135.72;5007026;28;20053;-73
2023/07/26 06:34:15;;;;;;;28.30;12.25;;;;;;;29.68;49.89;98124.53;5009533;28;20042;-73
2023/07/26 06:36:40;;;;;;;23.35;10.25;;;;;;;29.75;49.79;98121.25;5006881;28;21818;-72
2023/07/26 06:39:06;;;;;;;17.20;9.45;;;;;;;29.81;49.72;98122.13;5009016;28;20121;-73
2023/07/26 06:41:32;;;;;;;23.67;11.20;;;;;;;29.85;49.92;98113.25;5003152;28;20033;-72
2023/07/26 06:43:57;;;;;;;21.52;10.70;;;;;;;30.06;49.23;98111.25;5007305;28;20489;-74
2023/07/26 06:46:23;;;;;;;18.27;9.13;;;;;;;30.03;48.71;98100.66;5008514;28;20074;-76
2023/07/26 06:48:48;;;;;;;21.38;9.80;;;;;;;29.98;47.83;98110.81;5007740;28;20038;-74
2023/07/26 06:51:14;;;;;;;14.00;8.98;;;;;;;30.07;48.68;98115.72;5008564;28;20516;-72
2023/07/26 06:53:40;;;;;;;29.13;10.20;;;;;;;30.19;48.65;98119.53;4998112;28;20548;-74
2023/07/26 06:56:05;;;;;;;22.23;9.52;;;;;;;30.30;48.06;98118.91;5006602;28;20405;-74
2023/07/26 06:58:31;;;;;;;31.75;10.35;;;;;;;30.53;47.67;98119.19;5007050;28;20077;-73
2023/07/26 07:00:58;;;;;;;20.20;10.20;;;;;;;30.74;46.32;98125.75;5007787;28;20056;-73
2023/07/26 07:03:24;;;;;;;21.38;9.85;;;;;;;30.65;47.78;98118.03;5010390;28;20028;-74
2023/07/26 07:05:49;;;;;;;21.48;10.18;;;;;;;30.58;47.05;98109.78;5002253;28;20030;-74
2023/07/26 07:08:15;;;;;;;14.32;9.77;;;;;;;30.81;47.53;98104.28;4994493;28;20030;-74
2023/07/26 07:10:40;;;;;;;19.90;8.98;;;;;;;31.04;47.29;98110.31;4996561;28;20022;-74
2023/07/26 07:13:06;;;;;;;14.25;8.68;;;;;;;31.08;46.26;98113.75;5014166;28;20025;-74
2023/07/26 07:15:31;;;;;;;15.45;9.75;;;;;;;31.20;45.01;98111.75;5014419;28;20038;-74
2023/07/26 07:17:57;;;;;;;17.85;9.32;;;;;;;31.52;44.47;98114.66;5014655;28;20105;-74
2023/07/26 07:20:22;;;;;;;21.20;10.40;;;;;;;31.66;43.25;98107.94;5014538;28;20492;-73
2023/07/26 07:22:52;;;;;;;20.80;10.18;;;;;;;31.75;42.78;98112.75;5014392;28;20544;-74
2023/07/26 07:25:17;;;;;;;21.77;11.20;;;;;;;31.72;43.17;98104.31;5014669;28;20029;-73
2023/07/26 07:27:43;;;;;;;14.10;9.95;;;;;;;31.84;43.08;98108.91;5014431;28;20038;-71
2023/07/26 07:30:10;;;;;;;25.35;10.80;;;;;;;32.12;42.22;98107.47;5014046;28;20038;-74
2023/07/26 07:32:38;;;;;;;19.23;9.82;;;;;;;32.25;42.47;98095.44;5014292;28;20057;-73
2023/07/26 07:35:07;;;;;;;22.67;9.73;;;;;;;32.15;42.39;98094.88;5013628;28;20038;-74
2023/07/26 07:37:33;;;;;;;21.57;10.53;;;;;;;32.42;41.09;98090.56;5013334;28;20022;-74
2023/07/26 07:39:58;;;;;;;21.67;8.85;;;;;;;32.67;41.07;98095.88;5014162;28;20113;-73
2023/07/26 07:42:24;;;;;;;22.38;10.02;;;;;;;32.69;40.90;98093.25;5012790;28;20033;-74
2023/07/26 07:44:49;;;;;;;28.33;9.82;;;;;;;32.78;39.84;98087.22;5011827;28;20033;-74
2023/07/26 07:47:15;;;;;;;23.10;11.60;;;;;;;32.72;40.39;98092.22;5013819;28;20389;-74
2023/07/26 07:49:41;;;;;;;25.60;10.38;;;;;;;32.97;39.45;98086.78;5013577;28;20159;-74
2023/07/26 07:52:07;;;;;;;20.95;11.23;;;;;;;32.76;38.93;98079.09;5032585;28;20466;-74
2023/07/26 07:54:32;;;;;;;28.35;12.80;;;;;;;32.86;39.78;98084.59;5033473;28;20561;-74
2023/07/26 07:56:58;;;;;;;31.23;14.57;;;;;;;33.20;38.58;98070.19;5033643;28;20228;-72
2023/07/26 07:59:23;;;;;;;19.38;12.73;;;;;;;33.31;37.91;98070.19;5013986;28;20037;-73
2023/07/26 08:01:49;;;;;;;26.05;11.18;;;;;;;33.44;37.68;98075.47;5005093;28;20038;-72
2023/07/26 08:04:14;;;;;;;25.60;11.98;;;;;;;33.56;38.26;98075.50;5012097;28;20041;-73
2023/07/26 08:06:39;;;;;;;25.02;12.65;;;;;;;33.79;38.33;98070.44;5004273;28;20033;-72
2023/07/26 08:09:05;;;;;;;23.88;11.60;;;;;;;33.73;37.36;98069.66;5012894;28;20034;-72
2023/07/26 08:11:30;;;;;;;21.02;10.90;;;;;;;33.65;37.21;98066.50;5012904;28;20847;-72
2023/07/26 08:13:56;;;;;;;26.83;17.02;;;;;;;33.56;37.97;98063.91;5011529;28;20038;-72
2023/07/26 08:16:21;;;;;;;124.97;104.30;;;;;;;33.39;37.76;98055.97;5012894;28;20030;-72
2023/07/26 08:18:47;;;;;;;31.73;19.77;;;;;;;33.57;37.78;98050.97;5012668;28;20022;-73
2023/07/26 08:21:13;;;;;;;22.25;11.95;;;;;;;33.74;37.95;98053.84;5011003;28;20025;-72
2023/07/26 08:23:39;;;;;;;21.90;12.88;;;;;;;33.78;37.76;98048.56;5013156;28;20088;-73
2023/07/26 08:26:06;;;;;;;23.10;11.25;;;;;;;33.34;36.84;98056.78;5008346;28;20037;-73
2023/07/26 08:28:32;;;;;;;22.50;10.18;;;;;;;33.77;36.84;98041.19;5010129;28;20034;-74
2023/07/26 08:30:58;;;;;;;22.25;9.85;;;;;;;34.19;37.27;98032.63;5010043;28;20037;-73
2023/07/26 08:33:23;;;;;;;24.17;10.70;;;;;;;34.23;37.29;98033.13;5008227;28;20053;-73
2023/07/26 08:35:49;;;;;;;18.98;9.75;;;;;;;34.38;36.26;98034.91;5009759;28;20424;-73
2023/07/26 08:38:14;;;;;;;15.55;9.60;;;;;;;34.51;36.80;98037.22;5009872;28;20042;-74
2023/07/26 08:40:46;;;;;;;15.38;9.52;;;;;;;34.50;34.61;98039.31;5010141;28;20036;-77
2023/07/26 08:43:13;;;;;;;18.38;9.90;;;;;;;34.14;35.02;98039.22;5011112;28;20764;-76
2023/07/26 08:45:40;;;;;;;18.38;9.43;;;;;;;34.09;36.12;98035.06;5011535;28;20119;-75
2023/07/26 08:48:07;;;;;;;20.10;9.43;;;;;;;34.42;36.94;98032.53;5010973;28;20189;-75
2023/07/26 08:50:33;;;;;;;19.63;10.02;;;;;;;34.72;36.28;98028.94;5011706;28;20064;-74
2023/07/26 08:52:59;;;;;;;19.77;9.57;;;;;;;34.97;36.43;98035.63;5010090;28;20100;-74
2023/07/26 08:55:25;;;;;;;29.42;9.35;;;;;;;34.70;33.56;98019.97;5009517;28;20038;-76
2023/07/26 08:57:51;;;;;;;19.50;8.90;;;;;;;34.75;34.67;98006.75;5008907;28;20033;-75
2023/07/26 09:00:17;;;;;;;17.98;9.38;;;;;;;35.31;35.12;98017.13;5009619;28;20044;-74
2023/07/26 09:02:46;;;;;;;29.48;9.93;;;;;;;35.70;34.04;98004.34;5012209;28;20041;-73
2023/07/26 09:05:12;;;;;;;18.92;8.65;;;;;;;35.95;33.10;98013.03;5004651;28;20053;-73
2023/07/26 09:07:37;;;;;;;22.27;9.73;;;;;;;36.16;32.14;98014.69;5008516;28;20038;-74
2023/07/26 09:10:03;;;;;;;15.00;8.82;;;;;;;36.21;31.69;98000.06;5006503;28;20042;-78
2023/07/26 09:12:29;;;;;;;20.50;8.68;;;;;;;36.24;31.49;98001.88;5008852;28;20029;-73
2023/07/26 09:14:59;;;;;;;16.77;8.95;;;;;;;36.07;32.14;97990.44;5007159;28;20108;-74
2023/07/26 09:17:39;;;;;;;21.60;8.70;;;;;;;36.15;33.61;97993.53;5003665;28;20088;-75
2023/07/26 09:20:20;;;;;;;20.55;9.75;;;;;;;35.83;31.85;98003.66;5006542;28;20041;-75
2023/07/26 09:22:45;;;;;;;14.65;8.68;;;;;;;35.38;31.84;98010.75;5018411;28;20040;-74
2023/07/26 09:25:11;;;;;;;19.83;10.02;;;;;;;35.37;31.92;98009.16;4998875;28;20405;-76
2023/07/26 09:27:53;;;;;;;19.58;9.27;;;;;;;35.88;32.55;97999.13;5001969;28;20572;-76
2023/07/26 09:30:21;;;;;;;17.40;9.50;;;;;;;36.32;33.23;98004.13;5011982;28;20480;-76
2023/07/26 09:32:48;;;;;;;18.30;10.07;;;;;;;36.57;32.22;98001.97;4999002;28;20469;-74
2023/07/26 09:35:13;;;;;;;27.40;9.88;;;;;;;36.95;29.94;97995.28;5005681;28;20064;-74
2023/07/26 09:37:39;;;;;;;23.55;9.55;;;;;;;37.14;29.92;97988.63;5005064;28;20038;-76
2023/07/26 09:40:05;;;;;;;19.23;9.52;;;;;;;37.24;29.61;97992.69;5008703;28;20034;-74
2023/07/26 09:42:46;;;;;;;20.50;8.50;;;;;;;37.66;30.56;98003.09;5007996;28;20029;-75
2023/07/26 09:45:19;;;;;;;29.27;10.00;;;;;;;37.83;30.15;97994.78;5009164;28;20030;-73
2023/07/26 09:47:44;;;;;;;18.10;9.05;;;;;;;37.52;29.33;97985.59;5008718;28;20036;-74
2023/07/26 09:50:26;;;;;;;22.00;11.07;;;;;;;38.06;29.18;97985.59;5008675;28;20484;-71
2023/07/26 09:52:54;;;;;;;21.85;9.80;;;;;;;38.19;28.97;97991.41;5008318;28;20061;-73
2023/07/26 09:55:25;;;;;;;21.30;9.60;;;;;;;38.36;29.21;97986.56;5010377;28;20526;-74
2023/07/26 09:57:57;;;;;;;15.85;8.68;;;;;;;38.43;28.80;97977.88;5008860;28;20145;-74
2023/07/26 10:00:26;;;;;;;22.83;9.35;;;;;;;38.36;28.98;97974.88;5007506;28;20521;-73
2023/07/26 10:02:59;;;;;;;22.65;9.73;;;;;;;38.13;28.32;97969.53;5008195;28;20490;-75
2023/07/26 10:05:26;;;;;;;22.67;9.57;;;;;;;38.36;28.42;97977.81;5006342;28;20036;-75
2023/07/26 10:07:53;;;;;;;21.83;9.63;;;;;;;38.13;28.55;97963.72;5008832;28;20038;-75
2023/07/26 10:10:21;;;;;;;18.27;9.18;;;;;;;38.17;28.38;97959.09;5009750;28;20034;-75
2023/07/26 10:12:51;;;;;;;21.70;9.40;;;;;;;38.29;28.42;97955.94;5010071;28;20033;-76
2023/07/26 10:15:16;;;;;;;;;;;;;;;37.99;28.52;97952.03;5009118;28;20480;-76
2023/07/26 10:17:49;;;;;;;21.65;9.43;;;;;;;38.26;27.99;97949.09;5008252;28;19959;-74
2023/07/26 10:20:15;;;;;;;22.20;12.77;;;;;;;38.61;28.53;97949.09;5006443;28;20105;-74
2023/07/26 10:22:42;;;;;;;16.05;8.35;;;;;;;38.85;27.11;97950.09;5009035;28;20026;-74
2023/07/26 10:25:08;;;;;;;27.70;10.07;;;;;;;39.09;27.80;97940.22;5008655;28;20021;-75
2023/07/26 10:27:35;;;;;;;14.55;8.38;;;;;;;39.20;27.78;97947.91;5008219;28;20417;-75
2023/07/26 10:30:01;;;;;;;19.63;8.07;;;;;;;39.10;26.90;97941.00;5008516;28;20030;-73
2023/07/26 10:32:27;;;;;;;26.25;9.48;;;;;;;39.44;28.28;97940.09;5007102;28;20088;-74
2023/07/26 10:34:56;;;;;;;19.55;8.75;;;;;;;39.46;26.87;97931.53;5004390;28;20101;-74
2023/07/26 10:37:23;;;;;;;17.80;9.48;;;;;;;39.50;26.32;97926.13;5003926;28;20037;-74
2023/07/26 10:39:49;;;;;;;16.80;9.35;;;;;;;39.38;26.66;97925.63;5009020;28;20097;-74
2023/07/26 10:42:28;;;;;;;13.38;8.05;;;;;;;38.80;26.42;97918.91;5015074;28;20024;-74
2023/07/26 10:44:58;;;;;;;23.02;8.98;;;;;;;38.42;27.45;97926.69;5013562;28;20132;-74
2023/07/26 10:47:24;;;;;;;22.45;8.55;;;;;;;39.07;27.06;97918.78;5014528;28;20030;-74
2023/07/26 10:49:52;;;;;;;13.63;8.77;;;;;;;39.46;26.18;97916.91;5015190;28;20025;-74
2023/07/26 10:52:18;;;;;;;21.30;9.37;;;;;;;39.55;25.92;97903.94;5015033;28;20036;-74
2023/07/26 10:54:51;;;;;;;24.73;10.07;;;;;;;39.52;26.06;97893.38;5014452;28;20060;-74
2023/07/26 10:57:21;;;;;;;18.02;8.80;;;;;;;39.54;25.63;97884.84;5014185;28;20042;-74
2023/07/26 10:59:58;;;;;;;39.30;10.35;;;;;;;39.64;24.97;97879.22;5015016;28;20121;-74
2023/07/26 11:02:48;;;;;;;21.80;9.82;;;;;;;39.79;25.37;97876.34;5014919;28;20045;-74
2023/07/26 11:05:21;;;;;;;17.00;7.88;;;;;;;40.04;24.28;97878.81;5014343;28;20037;-74
2023/07/26 11:07:52;;;;;;;22.95;8.00;;;;;;;40.13;24.17;97872.41;5013900;28;20076;-74
2023/07/26 11:10:24;;;;;;;23.35;8.80;;;;;;;40.50;24.18;97865.69;5013414;28;20036;-74
2023/07/26 11:13:03;;;;;;;22.10;9.50;;;;;;;40.43;24.40;97867.22;5013739;28;20073;-74
2023/07/26 11:15:33;;;;;;;17.50;8.73;;;;;;;40.37;24.21;97864.50;5013786;28;20025;-74